sensor_id;sensor_type;location;lat;lon;timestamp;P1;durP1;ratioP1;P2;durP2;ratioP2
17953;SDS011;9102;53.548;9.926;2023-10-19T00:01:54;12.65;;;7.28;;
17953;SDS011;9102;53.548;9.926;2023-10-19T00:04:23;14.80;;;7.22;;
17953;SDS011;9102;53.548;9.926;2023-10-19T00:06:49;12.07;;;6.82;;
17953;SDS011;9102;53.548;9.926;2023-10-19T00:09:16;12.85;;;7.72;;
17953;SDS011;9102;53.548;9.926;2023-10-19T00:11:43;15.07;;;7.05;;
17953;SDS011;9102;53.548;9.926;2023-10-19T00:14:11;12.57;;;8.00;;
17953;SDS011;9102;53.548;9.926;2023-10-19T00:16:41;12.23;;;7.57;;
17953;SDS011;9102;53.548;9.926;2023-10-19T00:19:11;15.68;;;7.97;;
17953;SDS011;9102;53.548;9.926;2023-10-19T00:21:44;13.63;;;7.88;;
17953;SDS011;9102;53.548;9.926;2023-10-19T00:24:16;13.32;;;8.60;;
17953;SDS011;9102;53.548;9.926;2023-10-19T00:26:46;16.25;;;8.80;;
17953;SDS011;9102;53.548;9.926;2023-10-19T00:29:13;13.90;;;7.90;;
17953;SDS011;9102;53.548;9.926;2023-10-19T00:31:56;14.95;;;8.07;;
17953;SDS011;9102;53.548;9.926;2023-10-19T00:34:24;14.07;;;8.45;;
17953;SDS011;9102;53.548;9.926;2023-10-19T00:36:51;11.40;;;7.90;;
17953;SDS011;9102;53.548;9.926;2023-10-19T00:39:20;15.05;;;8.25;;
17953;SDS011;9102;53.548;9.926;2023-10-19T00:41:50;13.52;;;8.00;;
17953;SDS011;9102;53.548;9.926;2023-10-19T00:44:22;13.55;;;8.38;;
17953;SDS011;9102;53.548;9.926;2023-10-19T00:47:00;18.00;;;8.68;;
17953;SDS011;9102;53.548;9.926;2023-10-19T00:49:29;14.75;;;8.65;;
17953;SDS011;9102;53.548;9.926;2023-10-19T00:51:58;15.18;;;8.80;;
17953;SDS011;9102;53.548;9.926;2023-10-19T00:54:36;14.23;;;8.68;;
17953;SDS011;9102;53.548;9.926;2023-10-19T00:57:07;16.80;;;9.02;;
17953;SDS011;9102;53.548;9.926;2023-10-19T00:59:36;17.75;;;9.00;;
17953;SDS011;9102;53.548;9.926;2023-10-19T01:02:08;15.00;;;8.35;;
17953;SDS011;9102;53.548;9.926;2023-10-19T01:04:45;14.80;;;8.63;;
17953;SDS011;9102;53.548;9.926;2023-10-19T01:07:16;15.55;;;9.15;;
17953;SDS011;9102;53.548;9.926;2023-10-19T01:09:48;14.88;;;8.65;;
17953;SDS011;9102;53.548;9.926;2023-10-19T01:12:19;13.35;;;8.30;;
17953;SDS011;9102;53.548;9.926;2023-10-19T01:15:01;15.57;;;9.27;;
17953;SDS011;9102;53.548;9.926;2023-10-19T01:17:32;16.38;;;9.52;;
17953;SDS011;9102;53.548;9.926;2023-10-19T01:20:04;17.85;;;8.85;;
17953;SDS011;9102;53.548;9.926;2023-10-19T01:22:44;13.55;;;7.90;;
17953;SDS011;9102;53.548;9.926;2023-10-19T01:25:31;17.77;;;8.35;;
17953;SDS011;9102;53.548;9.926;2023-10-19T01:28:02;15.80;;;9.43;;
17953;SDS011;9102;53.548;9.926;2023-10-19T01:30:33;15.13;;;8.82;;
17953;SDS011;9102;53.548;9.926;2023-10-19T01:33:01;17.10;;;8.90;;
17953;SDS011;9102;53.548;9.926;2023-10-19T01:35:28;13.65;;;8.25;;
17953;SDS011;9102;53.548;9.926;2023-10-19T01:38:16;14.27;;;8.52;;
17953;SDS011;9102;53.548;9.926;2023-10-19T01:40:42;14.73;;;8.68;;
17953;SDS011;9102;53.548;9.926;2023-10-19T01:43:13;14.45;;;7.85;;
17953;SDS011;9102;53.548;9.926;2023-10-19T01:45:45;15.32;;;9.23;;
17953;SDS011;9102;53.548;9.926;2023-10-19T01:48:12;16.27;;;7.97;;
17953;SDS011;9102;53.548;9.926;2023-10-19T01:50:38;12.93;;;8.07;;
17953;SDS011;9102;53.548;9.926;2023-10-19T01:53:06;18.17;;;9.05;;
17953;SDS011;9102;53.548;9.926;2023-10-19T01:55:41;15.52;;;8.30;;
17953;SDS011;9102;53.548;9.926;2023-10-19T01:58:08;15.13;;;8.85;;
17953;SDS011;9102;53.548;9.926;2023-10-19T02:00:35;12.60;;;8.60;;
17953;SDS011;9102;53.548;9.926;2023-10-19T02:03:06;19.27;;;9.20;;
17953;SDS011;9102;53.548;9.926;2023-10-19T02:05:32;18.13;;;8.90;;
17953;SDS011;9102;53.548;9.926;2023-10-19T02:08:04;14.23;;;8.77;;
17953;SDS011;9102;53.548;9.926;2023-10-19T02:10:32;18.00;;;9.35;;
17953;SDS011;9102;53.548;9.926;2023-10-19T02:13:01;14.85;;;8.35;;
17953;SDS011;9102;53.548;9.926;2023-10-19T02:15:31;14.65;;;8.00;;
17953;SDS011;9102;53.548;9.926;2023-10-19T02:18:00;16.50;;;8.73;;
17953;SDS011;9102;53.548;9.926;2023-10-19T02:20:27;20.38;;;9.18;;
17953;SDS011;9102;53.548;9.926;2023-10-19T02:22:54;15.45;;;8.50;;
17953;SDS011;9102;53.548;9.926;2023-10-19T02:25:22;18.02;;;9.40;;
17953;SDS011;9102;53.548;9.926;2023-10-19T02:27:53;20.17;;;9.20;;
17953;SDS011;9102;53.548;9.926;2023-10-19T02:30:20;14.77;;;8.52;;
17953;SDS011;9102;53.548;9.926;2023-10-19T02:32:49;15.43;;;8.68;;
17953;SDS011;9102;53.548;9.926;2023-10-19T02:35:15;16.20;;;9.00;;
17953;SDS011;9102;53.548;9.926;2023-10-19T02:37:43;16.00;;;9.15;;
17953;SDS011;9102;53.548;9.926;2023-10-19T02:40:10;16.17;;;9.02;;
17953;SDS011;9102;53.548;9.926;2023-10-19T02:42:44;17.50;;;9.30;;
17953;SDS011;9102;53.548;9.926;2023-10-19T02:45:12;18.90;;;8.55;;
17953;SDS011;9102;53.548;9.926;2023-10-19T02:47:43;16.00;;;8.93;;
17953;SDS011;9102;53.548;9.926;2023-10-19T02:50:10;15.30;;;9.00;;
17953;SDS011;9102;53.548;9.926;2023-10-19T02:52:40;16.83;;;9.82;;
17953;SDS011;9102;53.548;9.926;2023-10-19T02:55:07;15.70;;;9.32;;
17953;SDS011;9102;53.548;9.926;2023-10-19T02:57:35;18.00;;;9.77;;
17953;SDS011;9102;53.548;9.926;2023-10-19T03:00:01;14.63;;;8.50;;
17953;SDS011;9102;53.548;9.926;2023-10-19T03:02:33;17.73;;;8.93;;
17953;SDS011;9102;53.548;9.926;2023-10-19T03:05:03;13.88;;;9.00;;
17953;SDS011;9102;53.548;9.926;2023-10-19T03:07:39;16.42;;;9.27;;
17953;SDS011;9102;53.548;9.926;2023-10-19T03:10:05;16.23;;;9.60;;
17953;SDS011;9102;53.548;9.926;2023-10-19T03:12:33;17.63;;;9.82;;
17953;SDS011;9102;53.548;9.926;2023-10-19T03:14:58;15.43;;;9.43;;
17953;SDS011;9102;53.548;9.926;2023-10-19T03:17:26;17.75;;;9.60;;
17953;SDS011;9102;53.548;9.926;2023-10-19T03:19:55;21.63;;;10.20;;
17953;SDS011;9102;53.548;9.926;2023-10-19T03:22:23;22.38;;;10.63;;
17953;SDS011;9102;53.548;9.926;2023-10-19T03:24:49;22.95;;;10.30;;
17953;SDS011;9102;53.548;9.926;2023-10-19T03:27:24;18.98;;;10.80;;
17953;SDS011;9102;53.548;9.926;2023-10-19T03:29:51;21.70;;;11.23;;
17953;SDS011;9102;53.548;9.926;2023-10-19T03:32:20;21.83;;;12.07;;
17953;SDS011;9102;53.548;9.926;2023-10-19T03:34:51;22.70;;;12.43;;
17953;SDS011;9102;53.548;9.926;2023-10-19T03:37:20;23.50;;;13.18;;
17953;SDS011;9102;53.548;9.926;2023-10-19T03:39:57;24.42;;;13.18;;
17953;SDS011;9102;53.548;9.926;2023-10-19T03:42:24;24.33;;;13.30;;
17953;SDS011;9102;53.548;9.926;2023-10-19T03:44:51;32.30;;;15.23;;
17953;SDS011;9102;53.548;9.926;2023-10-19T03:47:20;27.65;;;13.88;;
17953;SDS011;9102;53.548;9.926;2023-10-19T03:49:51;29.70;;;15.68;;
17953;SDS011;9102;53.548;9.926;2023-10-19T03:52:18;31.85;;;14.95;;
17953;SDS011;9102;53.548;9.926;2023-10-19T03:54:48;36.97;;;14.90;;
17953;SDS011;9102;53.548;9.926;2023-10-19T03:57:17;42.55;;;15.77;;
17953;SDS011;9102;53.548;9.926;2023-10-19T03:59:50;29.50;;;15.63;;
17953;SDS011;9102;53.548;9.926;2023-10-19T04:02:21;31.25;;;16.17;;
17953;SDS011;9102;53.548;9.926;2023-10-19T04:04:49;29.30;;;16.33;;
17953;SDS011;9102;53.548;9.926;2023-10-19T04:07:17;33.70;;;17.35;;
17953;SDS011;9102;53.548;9.926;2023-10-19T04:09:47;35.80;;;16.63;;
17953;SDS011;9102;53.548;9.926;2023-10-19T04:12:27;30.27;;;15.82;;
17953;SDS011;9102;53.548;9.926;2023-10-19T04:14:55;33.72;;;16.67;;
17953;SDS011;9102;53.548;9.926;2023-10-19T04:17:22;36.08;;;16.88;;
17953;SDS011;9102;53.548;9.926;2023-10-19T04:19:50;35.05;;;17.63;;
17953;SDS011;9102;53.548;9.926;2023-10-19T04:22:19;33.50;;;17.83;;
17953;SDS011;9102;53.548;9.926;2023-10-19T04:24:50;31.23;;;16.65;;
17953;SDS011;9102;53.548;9.926;2023-10-19T04:27:17;38.70;;;18.63;;
17953;SDS011;9102;53.548;9.926;2023-10-19T04:29:47;35.42;;;18.60;;
17953;SDS011;9102;53.548;9.926;2023-10-19T04:32:15;40.58;;;18.13;;
17953;SDS011;9102;53.548;9.926;2023-10-19T04:34:50;35.42;;;17.08;;
17953;SDS011;9102;53.548;9.926;2023-10-19T04:37:17;39.95;;;18.67;;
17953;SDS011;9102;53.548;9.926;2023-10-19T04:39:44;36.35;;;17.55;;
17953;SDS011;9102;53.548;9.926;2023-10-19T04:42:11;34.40;;;18.02;;
17953;SDS011;9102;53.548;9.926;2023-10-19T04:44:39;39.08;;;19.08;;
17953;SDS011;9102;53.548;9.926;2023-10-19T04:47:07;37.78;;;18.15;;
17953;SDS011;9102;53.548;9.926;2023-10-19T04:49:34;34.55;;;17.50;;
17953;SDS011;9102;53.548;9.926;2023-10-19T04:52:02;32.78;;;17.73;;
17953;SDS011;9102;53.548;9.926;2023-10-19T04:54:29;38.97;;;18.98;;
17953;SDS011;9102;53.548;9.926;2023-10-19T04:56:56;36.25;;;18.58;;
17953;SDS011;9102;53.548;9.926;2023-10-19T04:59:25;36.25;;;17.65;;
17953;SDS011;9102;53.548;9.926;2023-10-19T05:01:52;38.97;;;18.88;;
17953;SDS011;9102;53.548;9.926;2023-10-19T05:04:21;41.03;;;18.15;;
17953;SDS011;9102;53.548;9.926;2023-10-19T05:06:49;39.80;;;18.05;;
17953;SDS011;9102;53.548;9.926;2023-10-19T05:09:16;38.70;;;17.92;;
17953;SDS011;9102;53.548;9.926;2023-10-19T05:11:43;37.20;;;16.92;;
17953;SDS011;9102;53.548;9.926;2023-10-19T05:14:11;39.30;;;18.67;;
17953;SDS011;9102;53.548;9.926;2023-10-19T05:16:38;46.10;;;19.70;;
17953;SDS011;9102;53.548;9.926;2023-10-19T05:19:05;42.30;;;18.83;;
17953;SDS011;9102;53.548;9.926;2023-10-19T05:21:34;36.38;;;18.85;;
17953;SDS011;9102;53.548;9.926;2023-10-19T05:24:00;38.42;;;18.63;;
17953;SDS011;9102;53.548;9.926;2023-10-19T05:26:27;35.03;;;18.65;;
17953;SDS011;9102;53.548;9.926;2023-10-19T05:28:55;38.92;;;18.77;;
17953;SDS011;9102;53.548;9.926;2023-10-19T05:31:22;42.80;;;19.33;;
17953;SDS011;9102;53.548;9.926;2023-10-19T05:33:49;35.92;;;18.27;;
17953;SDS011;9102;53.548;9.926;2023-10-19T05:36:17;41.03;;;18.75;;
17953;SDS011;9102;53.548;9.926;2023-10-19T05:38:45;42.03;;;19.52;;
17953;SDS011;9102;53.548;9.926;2023-10-19T05:41:12;45.28;;;19.45;;
17953;SDS011;9102;53.548;9.926;2023-10-19T05:43:39;42.40;;;19.60;;
17953;SDS011;9102;53.548;9.926;2023-10-19T05:46:06;40.40;;;19.48;;
17953;SDS011;9102;53.548;9.926;2023-10-19T05:48:33;43.13;;;18.98;;
17953;SDS011;9102;53.548;9.926;2023-10-19T05:51:00;38.35;;;18.45;;
17953;SDS011;9102;53.548;9.926;2023-10-19T05:53:28;41.03;;;19.15;;
17953;SDS011;9102;53.548;9.926;2023-10-19T05:55:56;36.92;;;18.77;;
17953;SDS011;9102;53.548;9.926;2023-10-19T05:58:23;41.17;;;18.80;;
17953;SDS011;9102;53.548;9.926;2023-10-19T06:00:50;41.13;;;18.17;;
17953;SDS011;9102;53.548;9.926;2023-10-19T06:03:17;43.45;;;19.45;;
17953;SDS011;9102;53.548;9.926;2023-10-19T06:05:44;40.00;;;19.33;;
17953;SDS011;9102;53.548;9.926;2023-10-19T06:08:11;43.85;;;19.88;;
17953;SDS011;9102;53.548;9.926;2023-10-19T06:10:39;41.30;;;19.98;;
17953;SDS011;9102;53.548;9.926;2023-10-19T06:13:08;39.20;;;19.80;;
17953;SDS011;9102;53.548;9.926;2023-10-19T06:15:35;41.88;;;19.63;;
17953;SDS011;9102;53.548;9.926;2023-10-19T06:18:03;37.75;;;19.60;;
17953;SDS011;9102;53.548;9.926;2023-10-19T06:20:30;40.83;;;18.58;;
17953;SDS011;9102;53.548;9.926;2023-10-19T06:22:58;40.38;;;19.55;;
17953;SDS011;9102;53.548;9.926;2023-10-19T06:25:29;46.85;;;18.88;;
17953;SDS011;9102;53.548;9.926;2023-10-19T06:27:57;43.90;;;19.35;;
17953;SDS011;9102;53.548;9.926;2023-10-19T06:30:26;43.70;;;19.52;;
17953;SDS011;9102;53.548;9.926;2023-10-19T06:32:53;40.40;;;18.00;;
17953;SDS011;9102;53.548;9.926;2023-10-19T06:35:22;43.35;;;19.10;;
17953;SDS011;9102;53.548;9.926;2023-10-19T06:37:49;40.92;;;19.27;;
17953;SDS011;9102;53.548;9.926;2023-10-19T06:40:16;43.60;;;20.63;;
17953;SDS011;9102;53.548;9.926;2023-10-19T06:42:44;48.88;;;20.75;;
17953;SDS011;9102;53.548;9.926;2023-10-19T06:45:11;45.58;;;19.50;;
17953;SDS011;9102;53.548;9.926;2023-10-19T06:47:44;41.72;;;19.38;;
17953;SDS011;9102;53.548;9.926;2023-10-19T06:50:12;40.33;;;19.52;;
17953;SDS011;9102;53.548;9.926;2023-10-19T06:52:40;43.65;;;20.17;;
17953;SDS011;9102;53.548;9.926;2023-10-19T06:55:09;40.97;;;19.48;;
17953;SDS011;9102;53.548;9.926;2023-10-19T06:57:40;42.20;;;18.92;;
17953;SDS011;9102;53.548;9.926;2023-10-19T07:00:08;38.20;;;19.20;;
17953;SDS011;9102;53.548;9.926;2023-10-19T07:02:39;40.85;;;19.17;;
17953;SDS011;9102;53.548;9.926;2023-10-19T07:05:08;45.88;;;20.27;;
17953;SDS011;9102;53.548;9.926;2023-10-19T07:07:36;41.25;;;19.15;;
17953;SDS011;9102;53.548;9.926;2023-10-19T07:10:05;46.53;;;20.35;;
17953;SDS011;9102;53.548;9.926;2023-10-19T07:12:33;41.13;;;20.02;;
17953;SDS011;9102;53.548;9.926;2023-10-19T07:15:00;42.00;;;20.23;;
17953;SDS011;9102;53.548;9.926;2023-10-19T07:17:27;40.65;;;20.05;;
17953;SDS011;9102;53.548;9.926;2023-10-19T07:19:55;43.40;;;20.05;;
17953;SDS011;9102;53.548;9.926;2023-10-19T07:22:22;39.15;;;19.20;;
17953;SDS011;9102;53.548;9.926;2023-10-19T07:24:50;41.47;;;19.63;;
17953;SDS011;9102;53.548;9.926;2023-10-19T07:27:16;43.10;;;19.25;;
17953;SDS011;9102;53.548;9.926;2023-10-19T07:29:44;42.83;;;19.42;;
17953;SDS011;9102;53.548;9.926;2023-10-19T07:32:12;43.50;;;20.00;;
17953;SDS011;9102;53.548;9.926;2023-10-19T07:34:42;44.90;;;19.58;;
17953;SDS011;9102;53.548;9.926;2023-10-19T07:37:10;44.13;;;19.98;;
17953;SDS011;9102;53.548;9.926;2023-10-19T07:39:40;43.70;;;20.02;;
17953;SDS011;9102;53.548;9.926;2023-10-19T07:42:10;43.50;;;19.80;;
17953;SDS011;9102;53.548;9.926;2023-10-19T07:44:37;38.30;;;19.65;;
17953;SDS011;9102;53.548;9.926;2023-10-19T07:47:04;43.80;;;21.08;;
17953;SDS011;9102;53.548;9.926;2023-10-19T07:49:34;42.88;;;20.83;;
17953;SDS011;9102;53.548;9.926;2023-10-19T07:52:03;44.55;;;20.58;;
17953;SDS011;9102;53.548;9.926;2023-10-19T07:54:33;39.15;;;19.80;;
17953;SDS011;9102;53.548;9.926;2023-10-19T07:57:00;45.28;;;21.13;;
17953;SDS011;9102;53.548;9.926;2023-10-19T07:59:30;44.80;;;21.08;;
17953;SDS011;9102;53.548;9.926;2023-10-19T08:01:57;41.15;;;20.45;;
17953;SDS011;9102;53.548;9.926;2023-10-19T08:04:26;43.42;;;20.85;;
17953;SDS011;9102;53.548;9.926;2023-10-19T08:06:53;46.78;;;20.83;;
17953;SDS011;9102;53.548;9.926;2023-10-19T08:09:20;42.08;;;19.83;;
17953;SDS011;9102;53.548;9.926;2023-10-19T08:11:50;45.53;;;20.77;;
17953;SDS011;9102;53.548;9.926;2023-10-19T08:14:20;42.92;;;20.33;;
17953;SDS011;9102;53.548;9.926;2023-10-19T08:16:47;40.85;;;19.67;;
17953;SDS011;9102;53.548;9.926;2023-10-19T08:19:14;45.78;;;20.45;;
17953;SDS011;9102;53.548;9.926;2023-10-19T08:21:41;45.38;;;20.35;;
17953;SDS011;9102;53.548;9.926;2023-10-19T08:24:08;46.50;;;20.00;;
17953;SDS011;9102;53.548;9.926;2023-10-19T08:26:38;40.95;;;20.00;;
17953;SDS011;9102;53.548;9.926;2023-10-19T08:29:08;47.08;;;20.58;;
17953;SDS011;9102;53.548;9.926;2023-10-19T08:31:38;45.75;;;21.23;;
17953;SDS011;9102;53.548;9.926;2023-10-19T08:34:05;41.58;;;20.05;;
17953;SDS011;9102;53.548;9.926;2023-10-19T08:36:34;39.78;;;20.30;;
17953;SDS011;9102;53.548;9.926;2023-10-19T08:39:02;49.60;;;19.95;;
17953;SDS011;9102;53.548;9.926;2023-10-19T08:41:31;38.13;;;19.88;;
17953;SDS011;9102;53.548;9.926;2023-10-19T08:43:59;39.15;;;19.77;;
17953;SDS011;9102;53.548;9.926;2023-10-19T08:46:28;37.47;;;19.88;;
17953;SDS011;9102;53.548;9.926;2023-10-19T08:48:55;39.20;;;19.70;;
17953;SDS011;9102;53.548;9.926;2023-10-19T08:51:22;43.05;;;20.65;;
17953;SDS011;9102;53.548;9.926;2023-10-19T08:53:50;37.83;;;19.55;;
17953;SDS011;9102;53.548;9.926;2023-10-19T08:56:19;43.65;;;21.25;;
17953;SDS011;9102;53.548;9.926;2023-10-19T08:58:48;45.33;;;21.30;;
17953;SDS011;9102;53.548;9.926;2023-10-19T09:01:17;48.60;;;20.85;;
17953;SDS011;9102;53.548;9.926;2023-10-19T09:03:50;46.55;;;21.60;;
17953;SDS011;9102;53.548;9.926;2023-10-19T09:06:17;44.70;;;20.92;;
17953;SDS011;9102;53.548;9.926;2023-10-19T09:08:46;43.67;;;20.83;;
17953;SDS011;9102;53.548;9.926;2023-10-19T09:11:14;41.90;;;21.13;;
17953;SDS011;9102;53.548;9.926;2023-10-19T09:13:44;45.78;;;21.13;;
17953;SDS011;9102;53.548;9.926;2023-10-19T09:16:12;43.70;;;21.08;;
17953;SDS011;9102;53.548;9.926;2023-10-19T09:18:40;39.42;;;20.77;;
17953;SDS011;9102;53.548;9.926;2023-10-19T09:21:08;46.55;;;21.15;;
17953;SDS011;9102;53.548;9.926;2023-10-19T09:23:38;42.20;;;21.38;;
17953;SDS011;9102;53.548;9.926;2023-10-19T09:26:07;45.00;;;20.65;;
17953;SDS011;9102;53.548;9.926;2023-10-19T09:28:34;40.38;;;20.55;;
17953;SDS011;9102;53.548;9.926;2023-10-19T09:31:02;47.33;;;20.33;;
17953;SDS011;9102;53.548;9.926;2023-10-19T09:33:30;46.83;;;22.17;;
17953;SDS011;9102;53.548;9.926;2023-10-19T09:35:59;43.80;;;21.27;;
17953;SDS011;9102;53.548;9.926;2023-10-19T09:38:30;46.90;;;21.15;;
17953;SDS011;9102;53.548;9.926;2023-10-19T09:40:58;39.35;;;20.85;;
17953;SDS011;9102;53.548;9.926;2023-10-19T09:43:30;46.33;;;21.67;;
17953;SDS011;9102;53.548;9.926;2023-10-19T09:46:01;43.03;;;21.13;;
17953;SDS011;9102;53.548;9.926;2023-10-19T09:48:32;40.97;;;21.35;;
17953;SDS011;9102;53.548;9.926;2023-10-19T09:51:06;38.30;;;20.55;;
17953;SDS011;9102;53.548;9.926;2023-10-19T09:53:35;41.67;;;20.95;;
17953;SDS011;9102;53.548;9.926;2023-10-19T09:56:06;45.38;;;22.13;;
17953;SDS011;9102;53.548;9.926;2023-10-19T09:58:36;43.30;;;21.77;;
17953;SDS011;9102;53.548;9.926;2023-10-19T10:01:08;53.60;;;22.80;;
17953;SDS011;9102;53.548;9.926;2023-10-19T10:03:44;39.30;;;22.00;;
17953;SDS011;9102;53.548;9.926;2023-10-19T10:06:13;45.28;;;20.85;;
17953;SDS011;9102;53.548;9.926;2023-10-19T10:08:43;39.92;;;21.30;;
17953;SDS011;9102;53.548;9.926;2023-10-19T10:11:15;42.72;;;21.15;;
17953;SDS011;9102;53.548;9.926;2023-10-19T10:13:46;43.00;;;22.38;;
17953;SDS011;9102;53.548;9.926;2023-10-19T10:16:17;45.03;;;21.55;;
17953;SDS011;9102;53.548;9.926;2023-10-19T10:18:45;42.10;;;22.83;;
17953;SDS011;9102;53.548;9.926;2023-10-19T10:21:15;42.90;;;22.10;;
17953;SDS011;9102;53.548;9.926;2023-10-19T10:23:47;43.00;;;21.33;;
17953;SDS011;9102;53.548;9.926;2023-10-19T10:26:15;42.75;;;22.48;;
17953;SDS011;9102;53.548;9.926;2023-10-19T10:28:47;42.15;;;22.45;;
17953;SDS011;9102;53.548;9.926;2023-10-19T10:31:34;42.28;;;22.35;;
17953;SDS011;9102;53.548;9.926;2023-10-19T10:34:06;43.38;;;21.95;;
17953;SDS011;9102;53.548;9.926;2023-10-19T10:39:25;42.95;;;23.00;;
17953;SDS011;9102;53.548;9.926;2023-10-19T10:41:55;42.53;;;21.50;;
17953;SDS011;9102;53.548;9.926;2023-10-19T10:44:34;44.78;;;23.15;;
17953;SDS011;9102;53.548;9.926;2023-10-19T10:47:03;39.67;;;22.42;;
17953;SDS011;9102;53.548;9.926;2023-10-19T10:49:31;47.15;;;23.33;;
17953;SDS011;9102;53.548;9.926;2023-10-19T10:51:59;42.40;;;23.58;;
17953;SDS011;9102;53.548;9.926;2023-10-19T10:54:27;43.22;;;23.80;;
17953;SDS011;9102;53.548;9.926;2023-10-19T10:56:54;42.58;;;23.45;;
17953;SDS011;9102;53.548;9.926;2023-10-19T10:59:20;49.25;;;23.48;;
17953;SDS011;9102;53.548;9.926;2023-10-19T11:01:47;59.65;;;24.75;;
17953;SDS011;9102;53.548;9.926;2023-10-19T11:04:17;40.17;;;21.92;;
17953;SDS011;9102;53.548;9.926;2023-10-19T11:06:48;45.17;;;23.15;;
17953;SDS011;9102;53.548;9.926;2023-10-19T11:09:16;42.72;;;22.98;;
17953;SDS011;9102;53.548;9.926;2023-10-19T11:11:45;43.60;;;23.30;;
17953;SDS011;9102;53.548;9.926;2023-10-19T11:14:14;39.10;;;23.05;;
17953;SDS011;9102;53.548;9.926;2023-10-19T11:16:41;47.35;;;24.15;;
17953;SDS011;9102;53.548;9.926;2023-10-19T11:19:08;48.33;;;24.08;;
17953;SDS011;9102;53.548;9.926;2023-10-19T11:21:35;47.22;;;24.05;;
17953;SDS011;9102;53.548;9.926;2023-10-19T11:24:02;46.75;;;22.90;;
17953;SDS011;9102;53.548;9.926;2023-10-19T11:26:30;43.03;;;24.20;;
17953;SDS011;9102;53.548;9.926;2023-10-19T11:28:58;42.92;;;23.17;;
17953;SDS011;9102;53.548;9.926;2023-10-19T11:31:26;46.65;;;23.98;;
17953;SDS011;9102;53.548;9.926;2023-10-19T11:34:02;42.88;;;23.88;;
17953;SDS011;9102;53.548;9.926;2023-10-19T11:36:33;43.42;;;23.95;;
17953;SDS011;9102;53.548;9.926;2023-10-19T11:39:00;41.10;;;22.88;;
17953;SDS011;9102;53.548;9.926;2023-10-19T11:41:28;46.85;;;23.67;;
17953;SDS011;9102;53.548;9.926;2023-10-19T11:43:55;51.40;;;24.73;;
17953;SDS011;9102;53.548;9.926;2023-10-19T11:46:23;49.03;;;23.15;;
17953;SDS011;9102;53.548;9.926;2023-10-19T11:48:51;48.70;;;23.67;;
17953;SDS011;9102;53.548;9.926;2023-10-19T11:51:17;42.42;;;23.75;;
17953;SDS011;9102;53.548;9.926;2023-10-19T11:53:44;42.60;;;23.13;;
17953;SDS011;9102;53.548;9.926;2023-10-19T11:56:14;47.65;;;23.30;;
17953;SDS011;9102;53.548;9.926;2023-10-19T11:58:41;43.38;;;23.75;;
17953;SDS011;9102;53.548;9.926;2023-10-19T12:01:11;42.08;;;22.40;;
17953;SDS011;9102;53.548;9.926;2023-10-19T12:03:43;39.90;;;22.73;;
17953;SDS011;9102;53.548;9.926;2023-10-19T12:06:11;41.55;;;22.00;;
17953;SDS011;9102;53.548;9.926;2023-10-19T12:08:43;46.83;;;23.17;;
17953;SDS011;9102;53.548;9.926;2023-10-19T12:11:11;53.38;;;24.52;;
17953;SDS011;9102;53.548;9.926;2023-10-19T12:13:40;41.83;;;22.45;;
17953;SDS011;9102;53.548;9.926;2023-10-19T12:16:08;43.70;;;23.48;;
17953;SDS011;9102;53.548;9.926;2023-10-19T12:18:37;44.75;;;23.70;;
17953;SDS011;9102;53.548;9.926;2023-10-19T12:21:05;46.85;;;24.27;;
17953;SDS011;9102;53.548;9.926;2023-10-19T12:23:36;48.97;;;25.02;;
17953;SDS011;9102;53.548;9.926;2023-10-19T12:26:04;46.13;;;23.77;;
17953;SDS011;9102;53.548;9.926;2023-10-19T12:28:36;39.83;;;22.10;;
17953;SDS011;9102;53.548;9.926;2023-10-19T12:31:03;41.63;;;21.75;;
17953;SDS011;9102;53.548;9.926;2023-10-19T12:33:30;40.72;;;22.10;;
17953;SDS011;9102;53.548;9.926;2023-10-19T12:35:59;45.83;;;21.95;;
17953;SDS011;9102;53.548;9.926;2023-10-19T12:38:33;44.08;;;22.70;;
17953;SDS011;9102;53.548;9.926;2023-10-19T12:41:00;43.58;;;22.45;;
17953;SDS011;9102;53.548;9.926;2023-10-19T12:43:27;46.92;;;23.25;;
17953;SDS011;9102;53.548;9.926;2023-10-19T12:45:55;44.60;;;23.42;;
17953;SDS011;9102;53.548;9.926;2023-10-19T12:48:23;45.67;;;23.23;;
17953;SDS011;9102;53.548;9.926;2023-10-19T12:50:55;46.42;;;22.95;;
17953;SDS011;9102;53.548;9.926;2023-10-19T12:53:22;49.15;;;24.17;;
17953;SDS011;9102;53.548;9.926;2023-10-19T12:55:51;43.88;;;22.85;;
17953;SDS011;9102;53.548;9.926;2023-10-19T12:58:18;40.33;;;21.40;;
17953;SDS011;9102;53.548;9.926;2023-10-19T13:00:46;42.03;;;22.58;;
17953;SDS011;9102;53.548;9.926;2023-10-19T13:03:14;42.67;;;23.33;;
17953;SDS011;9102;53.548;9.926;2023-10-19T13:05:42;38.70;;;20.85;;
17953;SDS011;9102;53.548;9.926;2023-10-19T13:08:10;41.55;;;21.90;;
17953;SDS011;9102;53.548;9.926;2023-10-19T13:10:40;41.03;;;22.10;;
17953;SDS011;9102;53.548;9.926;2023-10-19T13:13:10;44.17;;;22.27;;
17953;SDS011;9102;53.548;9.926;2023-10-19T13:15:39;39.28;;;21.58;;
17953;SDS011;9102;53.548;9.926;2023-10-19T13:18:07;41.63;;;21.75;;
17953;SDS011;9102;53.548;9.926;2023-10-19T13:20:36;47.80;;;21.92;;
17953;SDS011;9102;53.548;9.926;2023-10-19T13:23:04;45.70;;;21.67;;
17953;SDS011;9102;53.548;9.926;2023-10-19T13:25:36;46.08;;;22.20;;
17953;SDS011;9102;53.548;9.926;2023-10-19T13:28:13;39.25;;;21.52;;
17953;SDS011;9102;53.548;9.926;2023-10-19T13:30:42;41.38;;;22.58;;
17953;SDS011;9102;53.548;9.926;2023-10-19T13:33:12;38.28;;;21.85;;
17953;SDS011;9102;53.548;9.926;2023-10-19T13:35:40;44.33;;;22.45;;
17953;SDS011;9102;53.548;9.926;2023-10-19T13:38:07;41.35;;;22.90;;
17953;SDS011;9102;53.548;9.926;2023-10-19T13:40:36;44.17;;;21.50;;
17953;SDS011;9102;53.548;9.926;2023-10-19T13:43:04;44.50;;;23.20;;
17953;SDS011;9102;53.548;9.926;2023-10-19T13:45:34;41.72;;;22.05;;
17953;SDS011;9102;53.548;9.926;2023-10-19T13:48:01;46.53;;;22.27;;
17953;SDS011;9102;53.548;9.926;2023-10-19T13:50:29;41.60;;;21.77;;
17953;SDS011;9102;53.548;9.926;2023-10-19T13:52:56;41.92;;;21.75;;
17953;SDS011;9102;53.548;9.926;2023-10-19T13:55:24;45.83;;;22.27;;
17953;SDS011;9102;53.548;9.926;2023-10-19T13:57:52;40.97;;;21.35;;
17953;SDS011;9102;53.548;9.926;2023-10-19T14:00:20;42.88;;;21.50;;
17953;SDS011;9102;53.548;9.926;2023-10-19T14:02:51;36.53;;;20.75;;
17953;SDS011;9102;53.548;9.926;2023-10-19T14:05:19;36.88;;;20.13;;
17953;SDS011;9102;53.548;9.926;2023-10-19T14:07:49;40.75;;;20.33;;
17953;SDS011;9102;53.548;9.926;2023-10-19T14:10:16;35.20;;;19.13;;
17953;SDS011;9102;53.548;9.926;2023-10-19T14:12:45;42.70;;;20.65;;
17953;SDS011;9102;53.548;9.926;2023-10-19T14:15:13;34.70;;;18.65;;
17953;SDS011;9102;53.548;9.926;2023-10-19T14:17:42;36.95;;;19.00;;
17953;SDS011;9102;53.548;9.926;2023-10-19T14:20:12;33.58;;;18.55;;
17953;SDS011;9102;53.548;9.926;2023-10-19T14:22:40;33.42;;;19.02;;
17953;SDS011;9102;53.548;9.926;2023-10-19T14:25:08;34.72;;;19.13;;
17953;SDS011;9102;53.548;9.926;2023-10-19T14:27:39;33.25;;;19.27;;
17953;SDS011;9102;53.548;9.926;2023-10-19T14:30:07;31.27;;;17.77;;
17953;SDS011;9102;53.548;9.926;2023-10-19T14:32:36;34.72;;;17.63;;
17953;SDS011;9102;53.548;9.926;2023-10-19T14:35:04;32.55;;;18.23;;
17953;SDS011;9102;53.548;9.926;2023-10-19T14:37:35;32.40;;;16.65;;
17953;SDS011;9102;53.548;9.926;2023-10-19T14:40:05;31.92;;;16.45;;
17953;SDS011;9102;53.548;9.926;2023-10-19T14:42:34;30.67;;;16.20;;
17953;SDS011;9102;53.548;9.926;2023-10-19T14:45:02;28.27;;;16.30;;
17953;SDS011;9102;53.548;9.926;2023-10-19T14:47:34;26.98;;;16.50;;
17953;SDS011;9102;53.548;9.926;2023-10-19T14:50:01;29.63;;;16.27;;
17953;SDS011;9102;53.548;9.926;2023-10-19T14:52:28;30.20;;;16.08;;